sensor_id;sensor_type;location;lat;lon;timestamp;P1;durP1;ratioP1;P2;durP2;ratioP2
22697;SDS011;11516;51.612;7.510;2022-07-23T00:00:53;8.23;;;6.10;;
22697;SDS011;11516;51.612;7.510;2022-07-23T00:03:18;7.40;;;5.85;;
22697;SDS011;11516;51.612;7.510;2022-07-23T00:05:44;8.27;;;6.40;;
22697;SDS011;11516;51.612;7.510;2022-07-23T00:08:09;8.90;;;6.30;;
22697;SDS011;11516;51.612;7.510;2022-07-23T00:10:35;10.80;;;6.87;;
22697;SDS011;11516;51.612;7.510;2022-07-23T00:13:01;9.90;;;7.30;;
22697;SDS011;11516;51.612;7.510;2022-07-23T00:15:27;9.50;;;6.32;;
22697;SDS011;11516;51.612;7.510;2022-07-23T00:17:53;10.10;;;7.30;;
22697;SDS011;11516;51.612;7.510;2022-07-23T00:20:18;8.90;;;6.80;;
22697;SDS011;11516;51.612;7.510;2022-07-23T00:22:50;8.60;;;6.97;;
22697;SDS011;11516;51.612;7.510;2022-07-23T00:25:18;11.43;;;6.88;;
22697;SDS011;11516;51.612;7.510;2022-07-23T00:27:45;9.53;;;7.77;;
22697;SDS011;11516;51.612;7.510;2022-07-23T00:30:10;11.57;;;7.47;;
22697;SDS011;11516;51.612;7.510;2022-07-23T00:35:12;11.75;;;7.95;;
22697;SDS011;11516;51.612;7.510;2022-07-23T00:37:38;11.90;;;8.18;;
22697;SDS011;11516;51.612;7.510;2022-07-23T00:40:04;11.27;;;8.00;;
22697;SDS011;11516;51.612;7.510;2022-07-23T00:42:31;12.05;;;7.95;;
22697;SDS011;11516;51.612;7.510;2022-07-23T00:44:57;13.55;;;8.82;;
22697;SDS011;11516;51.612;7.510;2022-07-23T00:47:22;13.55;;;8.82;;
22697;SDS011;11516;51.612;7.510;2022-07-23T00:49:48;10.83;;;8.37;;
22697;SDS011;11516;51.612;7.510;2022-07-23T00:52:13;13.77;;;8.60;;
22697;SDS011;11516;51.612;7.510;2022-07-23T00:54:39;10.77;;;8.43;;
22697;SDS011;11516;51.612;7.510;2022-07-23T00:57:05;10.90;;;7.93;;
22697;SDS011;11516;51.612;7.510;2022-07-23T00:59:30;10.23;;;8.07;;
22697;SDS011;11516;51.612;7.510;2022-07-23T01:01:56;10.35;;;8.43;;
22697;SDS011;11516;51.612;7.510;2022-07-23T01:04:21;10.95;;;8.13;;
22697;SDS011;11516;51.612;7.510;2022-07-23T01:06:47;11.52;;;8.18;;
22697;SDS011;11516;51.612;7.510;2022-07-23T01:09:13;11.07;;;8.15;;
22697;SDS011;11516;51.612;7.510;2022-07-23T01:11:38;11.97;;;8.73;;
22697;SDS011;11516;51.612;7.510;2022-07-23T01:14:09;12.57;;;9.02;;
22697;SDS011;11516;51.612;7.510;2022-07-23T01:16:41;13.07;;;8.63;;
22697;SDS011;11516;51.612;7.510;2022-07-23T01:19:08;12.57;;;8.85;;
22697;SDS011;11516;51.612;7.510;2022-07-23T01:21:38;11.98;;;9.20;;
22697;SDS011;11516;51.612;7.510;2022-07-23T01:24:09;12.15;;;8.95;;
22697;SDS011;11516;51.612;7.510;2022-07-23T01:26:36;12.97;;;8.47;;
22697;SDS011;11516;51.612;7.510;2022-07-23T01:29:04;12.23;;;9.45;;
22697;SDS011;11516;51.612;7.510;2022-07-23T01:31:30;11.80;;;9.07;;
22697;SDS011;11516;51.612;7.510;2022-07-23T01:33:57;12.27;;;9.85;;
22697;SDS011;11516;51.612;7.510;2022-07-23T01:36:31;10.90;;;9.07;;
22697;SDS011;11516;51.612;7.510;2022-07-23T01:38:59;12.90;;;9.23;;
22697;SDS011;11516;51.612;7.510;2022-07-23T01:41:24;11.15;;;8.70;;
22697;SDS011;11516;51.612;7.510;2022-07-23T01:43:50;12.02;;;9.15;;
22697;SDS011;11516;51.612;7.510;2022-07-23T01:46:16;13.00;;;9.20;;
22697;SDS011;11516;51.612;7.510;2022-07-23T01:48:42;13.63;;;9.30;;
22697;SDS011;11516;51.612;7.510;2022-07-23T01:51:08;11.63;;;8.93;;
22697;SDS011;11516;51.612;7.510;2022-07-23T01:53:33;12.23;;;8.98;;
22697;SDS011;11516;51.612;7.510;2022-07-23T01:55:59;12.20;;;9.63;;
22697;SDS011;11516;51.612;7.510;2022-07-23T01:58:26;13.90;;;10.50;;
22697;SDS011;11516;51.612;7.510;2022-07-23T02:00:53;13.77;;;9.63;;
22697;SDS011;11516;51.612;7.510;2022-07-23T02:03:20;12.32;;;9.90;;
22697;SDS011;11516;51.612;7.510;2022-07-23T02:05:49;12.20;;;10.13;;
22697;SDS011;11516;51.612;7.510;2022-07-23T02:08:15;12.30;;;9.98;;
22697;SDS011;11516;51.612;7.510;2022-07-23T02:10:41;15.00;;;10.43;;
22697;SDS011;11516;51.612;7.510;2022-07-23T02:13:07;14.65;;;10.32;;
22697;SDS011;11516;51.612;7.510;2022-07-23T02:15:33;12.80;;;9.98;;
22697;SDS011;11516;51.612;7.510;2022-07-23T02:17:59;13.57;;;9.97;;
22697;SDS011;11516;51.612;7.510;2022-07-23T02:20:24;13.52;;;10.18;;
22697;SDS011;11516;51.612;7.510;2022-07-23T02:22:50;14.13;;;10.63;;
22697;SDS011;11516;51.612;7.510;2022-07-23T02:25:16;12.90;;;10.65;;
22697;SDS011;11516;51.612;7.510;2022-07-23T02:27:41;15.90;;;11.13;;
22697;SDS011;11516;51.612;7.510;2022-07-23T02:30:07;18.95;;;15.07;;
22697;SDS011;11516;51.612;7.510;2022-07-23T02:32:33;15.55;;;11.10;;
22697;SDS011;11516;51.612;7.510;2022-07-23T02:35:00;13.20;;;10.57;;
22697;SDS011;11516;51.612;7.510;2022-07-23T02:37:25;12.40;;;9.53;;
22697;SDS011;11516;51.612;7.510;2022-07-23T02:39:51;12.03;;;9.60;;
22697;SDS011;11516;51.612;7.510;2022-07-23T02:42:16;14.00;;;9.97;;
22697;SDS011;11516;51.612;7.510;2022-07-23T02:44:42;12.02;;;9.32;;
22697;SDS011;11516;51.612;7.510;2022-07-23T02:47:09;13.90;;;9.77;;
22697;SDS011;11516;51.612;7.510;2022-07-23T02:49:34;13.48;;;9.77;;
22697;SDS011;11516;51.612;7.510;2022-07-23T02:52:00;11.90;;;9.83;;
22697;SDS011;11516;51.612;7.510;2022-07-23T02:54:26;12.43;;;9.83;;
22697;SDS011;11516;51.612;7.510;2022-07-23T02:56:51;15.60;;;10.82;;
22697;SDS011;11516;51.612;7.510;2022-07-23T02:59:17;14.73;;;9.88;;
22697;SDS011;11516;51.612;7.510;2022-07-23T03:01:43;11.70;;;9.38;;
22697;SDS011;11516;51.612;7.510;2022-07-23T03:04:09;12.88;;;9.52;;
22697;SDS011;11516;51.612;7.510;2022-07-23T03:06:35;13.00;;;9.50;;
22697;SDS011;11516;51.612;7.510;2022-07-23T03:09:00;13.63;;;9.70;;
22697;SDS011;11516;51.612;7.510;2022-07-23T03:11:26;12.45;;;9.63;;
22697;SDS011;11516;51.612;7.510;2022-07-23T03:13:52;11.80;;;9.48;;
22697;SDS011;11516;51.612;7.510;2022-07-23T03:16:17;11.38;;;9.48;;
22697;SDS011;11516;51.612;7.510;2022-07-23T03:18:43;14.45;;;10.10;;
22697;SDS011;11516;51.612;7.510;2022-07-23T03:21:08;14.68;;;10.60;;
22697;SDS011;11516;51.612;7.510;2022-07-23T03:23:34;15.05;;;10.45;;
22697;SDS011;11516;51.612;7.510;2022-07-23T03:25:59;12.30;;;9.85;;
22697;SDS011;11516;51.612;7.510;2022-07-23T03:28:25;13.70;;;10.67;;
22697;SDS011;11516;51.612;7.510;2022-07-23T03:30:50;13.63;;;10.07;;
22697;SDS011;11516;51.612;7.510;2022-07-23T03:33:17;15.87;;;10.20;;
22697;SDS011;11516;51.612;7.510;2022-07-23T03:35:44;13.73;;;10.57;;
22697;SDS011;11516;51.612;7.510;2022-07-23T03:38:10;13.97;;;10.07;;
22697;SDS011;11516;51.612;7.510;2022-07-23T03:40:36;13.77;;;10.63;;
22697;SDS011;11516;51.612;7.510;2022-07-23T03:43:01;12.80;;;9.85;;
22697;SDS011;11516;51.612;7.510;2022-07-23T03:45:27;13.13;;;10.73;;
22697;SDS011;11516;51.612;7.510;2022-07-23T03:47:53;14.60;;;10.70;;
22697;SDS011;11516;51.612;7.510;2022-07-23T03:50:19;13.32;;;10.52;;
22697;SDS011;11516;51.612;7.510;2022-07-23T03:52:45;11.25;;;9.60;;
22697;SDS011;11516;51.612;7.510;2022-07-23T03:55:10;15.68;;;10.57;;
22697;SDS011;11516;51.612;7.510;2022-07-23T03:57:36;14.25;;;10.48;;
22697;SDS011;11516;51.612;7.510;2022-07-23T04:00:03;12.93;;;10.18;;
22697;SDS011;11516;51.612;7.510;2022-07-23T04:02:30;12.88;;;10.80;;
22697;SDS011;11516;51.612;7.510;2022-07-23T04:04:56;14.40;;;10.70;;
22697;SDS011;11516;51.612;7.510;2022-07-23T04:07:21;13.40;;;10.57;;
22697;SDS011;11516;51.612;7.510;2022-07-23T04:09:47;14.47;;;10.33;;
22697;SDS011;11516;51.612;7.510;2022-07-23T04:12:12;12.27;;;10.67;;
22697;SDS011;11516;51.612;7.510;2022-07-23T04:14:39;14.45;;;11.10;;
22697;SDS011;11516;51.612;7.510;2022-07-23T04:17:04;17.17;;;11.00;;
22697;SDS011;11516;51.612;7.510;2022-07-23T04:19:30;13.77;;;10.70;;
22697;SDS011;11516;51.612;7.510;2022-07-23T04:21:55;12.80;;;10.87;;
22697;SDS011;11516;51.612;7.510;2022-07-23T04:24:22;15.82;;;11.20;;
22697;SDS011;11516;51.612;7.510;2022-07-23T04:26:47;14.57;;;10.83;;
22697;SDS011;11516;51.612;7.510;2022-07-23T04:29:13;13.47;;;10.97;;
22697;SDS011;11516;51.612;7.510;2022-07-23T04:31:38;13.60;;;11.07;;
22697;SDS011;11516;51.612;7.510;2022-07-23T04:34:04;12.50;;;10.13;;
22697;SDS011;11516;51.612;7.510;2022-07-23T04:36:29;15.23;;;11.30;;
22697;SDS011;11516;51.612;7.510;2022-07-23T04:38:55;14.40;;;10.98;;
22697;SDS011;11516;51.612;7.510;2022-07-23T04:41:20;14.68;;;10.90;;
22697;SDS011;11516;51.612;7.510;2022-07-23T04:43:46;13.90;;;10.70;;
22697;SDS011;11516;51.612;7.510;2022-07-23T04:46:12;13.60;;;10.87;;
22697;SDS011;11516;51.612;7.510;2022-07-23T04:48:38;16.05;;;11.68;;
22697;SDS011;11516;51.612;7.510;2022-07-23T04:51:04;15.23;;;11.17;;
22697;SDS011;11516;51.612;7.510;2022-07-23T04:53:30;12.93;;;10.75;;
22697;SDS011;11516;51.612;7.510;2022-07-23T04:55:56;12.77;;;10.67;;
22697;SDS011;11516;51.612;7.510;2022-07-23T04:58:21;13.20;;;10.63;;
22697;SDS011;11516;51.612;7.510;2022-07-23T05:00:47;15.33;;;11.03;;
22697;SDS011;11516;51.612;7.510;2022-07-23T05:03:12;14.18;;;10.63;;
22697;SDS011;11516;51.612;7.510;2022-07-23T05:05:38;14.10;;;10.43;;
22697;SDS011;11516;51.612;7.510;2022-07-23T05:08:04;13.07;;;10.55;;
22697;SDS011;11516;51.612;7.510;2022-07-23T05:10:29;12.68;;;10.60;;
22697;SDS011;11516;51.612;7.510;2022-07-23T05:12:55;14.55;;;10.90;;
22697;SDS011;11516;51.612;7.510;2022-07-23T05:15:20;13.90;;;11.20;;
22697;SDS011;11516;51.612;7.510;2022-07-23T05:17:46;11.90;;;10.23;;
22697;SDS011;11516;51.612;7.510;2022-07-23T05:20:12;12.67;;;10.80;;
22697;SDS011;11516;51.612;7.510;2022-07-23T05:22:38;17.48;;;10.88;;
22697;SDS011;11516;51.612;7.510;2022-07-23T05:25:04;13.97;;;10.33;;
22697;SDS011;11516;51.612;7.510;2022-07-23T05:27:30;14.73;;;11.38;;
22697;SDS011;11516;51.612;7.510;2022-07-23T05:29:55;13.80;;;10.93;;
22697;SDS011;11516;51.612;7.510;2022-07-23T05:32:21;14.43;;;10.67;;
22697;SDS011;11516;51.612;7.510;2022-07-23T05:34:46;12.87;;;10.30;;
22697;SDS011;11516;51.612;7.510;2022-07-23T05:37:12;14.00;;;10.53;;
22697;SDS011;11516;51.612;7.510;2022-07-23T05:39:37;12.43;;;10.50;;
22697;SDS011;11516;51.612;7.510;2022-07-23T05:42:03;14.67;;;9.93;;
22697;SDS011;11516;51.612;7.510;2022-07-23T05:44:29;18.83;;;10.63;;
22697;SDS011;11516;51.612;7.510;2022-07-23T05:46:54;12.70;;;10.30;;
22697;SDS011;11516;51.612;7.510;2022-07-23T05:49:20;13.68;;;9.95;;
22697;SDS011;11516;51.612;7.510;2022-07-23T05:51:45;13.60;;;10.13;;
22697;SDS011;11516;51.612;7.510;2022-07-23T05:54:11;11.75;;;9.65;;
22697;SDS011;11516;51.612;7.510;2022-07-23T05:56:36;13.90;;;10.35;;
22697;SDS011;11516;51.612;7.510;2022-07-23T05:59:02;11.65;;;9.40;;
22697;SDS011;11516;51.612;7.510;2022-07-23T06:01:28;12.45;;;9.57;;
22697;SDS011;11516;51.612;7.510;2022-07-23T06:03:53;13.77;;;10.43;;
22697;SDS011;11516;51.612;7.510;2022-07-23T06:06:19;14.20;;;10.20;;
22697;SDS011;11516;51.612;7.510;2022-07-23T06:08:44;14.10;;;10.20;;
22697;SDS011;11516;51.612;7.510;2022-07-23T06:11:10;12.67;;;10.10;;
22697;SDS011;11516;51.612;7.510;2022-07-23T06:13:36;14.63;;;10.30;;
22697;SDS011;11516;51.612;7.510;2022-07-23T06:16:01;13.80;;;10.57;;
22697;SDS011;11516;51.612;7.510;2022-07-23T06:18:27;14.47;;;10.50;;
22697;SDS011;11516;51.612;7.510;2022-07-23T06:20:52;13.30;;;10.57;;
22697;SDS011;11516;51.612;7.510;2022-07-23T06:23:18;12.50;;;10.60;;
22697;SDS011;11516;51.612;7.510;2022-07-23T06:25:43;13.90;;;11.45;;
22697;SDS011;11516;51.612;7.510;2022-07-23T06:28:09;14.73;;;12.03;;
22697;SDS011;11516;51.612;7.510;2022-07-23T06:30:34;16.23;;;11.77;;
22697;SDS011;11516;51.612;7.510;2022-07-23T06:33:00;14.03;;;12.00;;
22697;SDS011;11516;51.612;7.510;2022-07-23T06:35:25;14.63;;;11.83;;
22697;SDS011;11516;51.612;7.510;2022-07-23T06:37:51;14.70;;;11.73;;
22697;SDS011;11516;51.612;7.510;2022-07-23T06:40:16;17.97;;;13.37;;
22697;SDS011;11516;51.612;7.510;2022-07-23T06:42:42;17.53;;;13.57;;
22697;SDS011;11516;51.612;7.510;2022-07-23T06:45:08;15.57;;;13.07;;
22697;SDS011;11516;51.612;7.510;2022-07-23T06:47:33;15.73;;;11.85;;
22697;SDS011;11516;51.612;7.510;2022-07-23T06:49:59;14.93;;;12.23;;
22697;SDS011;11516;51.612;7.510;2022-07-23T06:52:24;16.37;;;12.70;;
22697;SDS011;11516;51.612;7.510;2022-07-23T06:54:51;16.23;;;12.32;;
22697;SDS011;11516;51.612;7.510;2022-07-23T06:57:17;15.90;;;12.60;;
22697;SDS011;11516;51.612;7.510;2022-07-23T06:59:43;18.43;;;13.30;;
22697;SDS011;11516;51.612;7.510;2022-07-23T07:02:08;16.93;;;12.50;;
22697;SDS011;11516;51.612;7.510;2022-07-23T07:04:34;19.73;;;13.53;;
22697;SDS011;11516;51.612;7.510;2022-07-23T07:07:00;18.23;;;13.17;;
22697;SDS011;11516;51.612;7.510;2022-07-23T07:09:25;16.95;;;12.38;;
22697;SDS011;11516;51.612;7.510;2022-07-23T07:11:51;20.23;;;14.05;;
22697;SDS011;11516;51.612;7.510;2022-07-23T07:14:16;20.35;;;13.95;;
22697;SDS011;11516;51.612;7.510;2022-07-23T07:16:42;21.50;;;15.07;;
22697;SDS011;11516;51.612;7.510;2022-07-23T07:19:07;20.80;;;14.27;;
22697;SDS011;11516;51.612;7.510;2022-07-23T07:21:33;19.60;;;13.88;;
22697;SDS011;11516;51.612;7.510;2022-07-23T07:23:59;18.48;;;13.32;;
22697;SDS011;11516;51.612;7.510;2022-07-23T07:26:24;21.02;;;14.50;;
22697;SDS011;11516;51.612;7.510;2022-07-23T07:28:50;19.48;;;12.88;;
22697;SDS011;11516;51.612;7.510;2022-07-23T07:31:16;18.73;;;13.37;;
22697;SDS011;11516;51.612;7.510;2022-07-23T07:33:42;17.73;;;12.83;;
22697;SDS011;11516;51.612;7.510;2022-07-23T07:36:07;16.00;;;12.00;;
22697;SDS011;11516;51.612;7.510;2022-07-23T07:38:33;18.83;;;12.10;;
22697;SDS011;11516;51.612;7.510;2022-07-23T07:40:59;15.57;;;11.18;;
22697;SDS011;11516;51.612;7.510;2022-07-23T07:43:26;13.50;;;10.95;;
22697;SDS011;11516;51.612;7.510;2022-07-23T07:45:51;12.80;;;10.17;;
22697;SDS011;11516;51.612;7.510;2022-07-23T07:48:17;17.83;;;12.63;;
22697;SDS011;11516;51.612;7.510;2022-07-23T07:50:42;15.43;;;10.60;;
22697;SDS011;11516;51.612;7.510;2022-07-23T07:53:08;17.20;;;11.33;;
22697;SDS011;11516;51.612;7.510;2022-07-23T07:55:34;17.20;;;12.33;;
22697;SDS011;11516;51.612;7.510;2022-07-23T07:58:00;11.63;;;9.23;;
22697;SDS011;11516;51.612;7.510;2022-07-23T08:00:25;12.70;;;9.03;;
22697;SDS011;11516;51.612;7.510;2022-07-23T08:02:51;11.50;;;8.77;;
22697;SDS011;11516;51.612;7.510;2022-07-23T08:05:22;11.65;;;8.63;;
22697;SDS011;11516;51.612;7.510;2022-07-23T08:07:48;13.45;;;8.90;;
22697;SDS011;11516;51.612;7.510;2022-07-23T08:10:14;11.27;;;8.30;;
22697;SDS011;11516;51.612;7.510;2022-07-23T08:12:44;11.80;;;8.25;;
22697;SDS011;11516;51.612;7.510;2022-07-23T08:15:12;18.45;;;10.93;;
22697;SDS011;11516;51.612;7.510;2022-07-23T08:17:39;11.70;;;8.35;;
22697;SDS011;11516;51.612;7.510;2022-07-23T08:20:05;12.45;;;7.88;;
22697;SDS011;11516;51.612;7.510;2022-07-23T08:22:51;9.68;;;7.60;;
22697;SDS011;11516;51.612;7.510;2022-07-23T08:25:25;11.48;;;7.72;;
22697;SDS011;11516;51.612;7.510;2022-07-23T08:27:51;11.02;;;7.38;;
22697;SDS011;11516;51.612;7.510;2022-07-23T08:30:17;10.63;;;6.60;;
22697;SDS011;11516;51.612;7.510;2022-07-23T08:32:50;12.85;;;7.00;;
22697;SDS011;11516;51.612;7.510;2022-07-23T08:35:21;9.57;;;7.20;;
22697;SDS011;11516;51.612;7.510;2022-07-23T08:37:55;10.47;;;7.00;;
22697;SDS011;11516;51.612;7.510;2022-07-23T08:40:21;9.13;;;6.60;;
22697;SDS011;11516;51.612;7.510;2022-07-23T08:42:48;8.73;;;5.78;;
22697;SDS011;11516;51.612;7.510;2022-07-23T08:45:18;7.47;;;5.10;;
22697;SDS011;11516;51.612;7.510;2022-07-23T08:47:46;7.45;;;5.55;;
22697;SDS011;11516;51.612;7.510;2022-07-23T08:50:18;8.35;;;5.30;;
22697;SDS011;11516;51.612;7.510;2022-07-23T08:52:43;10.93;;;6.90;;
22697;SDS011;11516;51.612;7.510;2022-07-23T08:55:10;8.05;;;5.40;;
22697;SDS011;11516;51.612;7.510;2022-07-23T08:57:36;9.32;;;6.53;;
22697;SDS011;11516;51.612;7.510;2022-07-23T09:00:03;7.20;;;4.90;;
22697;SDS011;11516;51.612;7.510;2022-07-23T09:02:29;7.28;;;4.50;;
22697;SDS011;11516;51.612;7.510;2022-07-23T09:04:55;6.72;;;5.20;;
22697;SDS011;11516;51.612;7.510;2022-07-23T09:07:21;6.30;;;4.63;;
22697;SDS011;11516;51.612;7.510;2022-07-23T09:09:46;5.30;;;4.73;;
22697;SDS011;11516;51.612;7.510;2022-07-23T09:12:24;7.40;;;5.17;;
22697;SDS011;11516;51.612;7.510;2022-07-23T09:14:51;7.93;;;4.80;;
22697;SDS011;11516;51.612;7.510;2022-07-23T09:17:17;6.93;;;4.97;;
22697;SDS011;11516;51.612;7.510;2022-07-23T09:19:44;6.10;;;4.50;;
22697;SDS011;11516;51.612;7.510;2022-07-23T09:22:17;7.20;;;4.53;;
22697;SDS011;11516;51.612;7.510;2022-07-23T09:30:18;8.05;;;5.20;;
22697;SDS011;11516;51.612;7.510;2022-07-23T09:36:07;5.70;;;3.92;;
22697;SDS011;11516;51.612;7.510;2022-07-23T09:38:49;7.17;;;4.97;;
22697;SDS011;11516;51.612;7.510;2022-07-23T09:41:15;6.22;;;4.30;;
22697;SDS011;11516;51.612;7.510;2022-07-23T09:43:42;6.22;;;4.32;;
22697;SDS011;11516;51.612;7.510;2022-07-23T09:46:21;5.90;;;3.40;;
22697;SDS011;11516;51.612;7.510;2022-07-23T09:48:49;7.32;;;4.20;;
22697;SDS011;11516;51.612;7.510;2022-07-23T09:51:16;5.70;;;4.10;;
22697;SDS011;11516;51.612;7.510;2022-07-23T09:54:01;5.75;;;4.40;;
22697;SDS011;11516;51.612;7.510;2022-07-23T09:56:27;6.63;;;4.03;;
22697;SDS011;11516;51.612;7.510;2022-07-23T09:58:54;5.60;;;4.38;;
22697;SDS011;11516;51.612;7.510;2022-07-23T10:01:34;8.05;;;5.25;;
22697;SDS011;11516;51.612;7.510;2022-07-23T10:04:00;5.40;;;4.47;;
22697;SDS011;11516;51.612;7.510;2022-07-23T10:06:26;5.60;;;4.03;;
22697;SDS011;11516;51.612;7.510;2022-07-23T10:08:53;5.00;;;3.90;;
22697;SDS011;11516;51.612;7.510;2022-07-23T10:11:23;4.90;;;3.60;;
22697;SDS011;11516;51.612;7.510;2022-07-23T10:13:49;5.07;;;4.25;;
22697;SDS011;11516;51.612;7.510;2022-07-23T10:16:17;5.03;;;4.10;;
22697;SDS011;11516;51.612;7.510;2022-07-23T10:18:43;4.38;;;3.53;;
22697;SDS011;11516;51.612;7.510;2022-07-23T10:21:09;4.22;;;3.20;;
22697;SDS011;11516;51.612;7.510;2022-07-23T10:24:28;5.43;;;4.10;;
22697;SDS011;11516;51.612;7.510;2022-07-23T10:29:14;4.82;;;3.83;;
22697;SDS011;11516;51.612;7.510;2022-07-23T10:34:40;6.20;;;4.38;;
22697;SDS011;11516;51.612;7.510;2022-07-23T10:37:29;5.90;;;3.88;;
22697;SDS011;11516;51.612;7.510;2022-07-23T10:40:18;5.78;;;3.45;;
22697;SDS011;11516;51.612;7.510;2022-07-23T10:42:48;4.85;;;2.90;;
22697;SDS011;11516;51.612;7.510;2022-07-23T10:48:15;6.30;;;4.28;;
22697;SDS011;11516;51.612;7.510;2022-07-23T10:50:42;5.20;;;3.60;;
22697;SDS011;11516;51.612;7.510;2022-07-23T10:53:10;4.43;;;3.53;;
22697;SDS011;11516;51.612;7.510;2022-07-23T10:58:03;5.90;;;4.53;;
22697;SDS011;11516;51.612;7.510;2022-07-23T11:00:30;7.18;;;4.40;;
22697;SDS011;11516;51.612;7.510;2022-07-23T11:02:57;5.68;;;3.97;;
22697;SDS011;11516;51.612;7.510;2022-07-23T11:05:43;5.10;;;3.90;;
22697;SDS011;11516;51.612;7.510;2022-07-23T11:08:11;4.97;;;4.47;;
22697;SDS011;11516;51.612;7.510;2022-07-23T11:10:41;7.00;;;4.55;;
22697;SDS011;11516;51.612;7.510;2022-07-23T11:13:25;5.05;;;4.10;;
22697;SDS011;11516;51.612;7.510;2022-07-23T11:32:00;3.67;;;2.38;;
22697;SDS011;11516;51.612;7.510;2022-07-23T11:36:53;3.13;;;2.43;;
22697;SDS011;11516;51.612;7.510;2022-07-23T11:39:18;4.95;;;2.95;;
22697;SDS011;11516;51.612;7.510;2022-07-23T11:41:45;3.95;;;3.25;;
22697;SDS011;11516;51.612;7.510;2022-07-23T11:44:27;2.10;;;1.73;;
22697;SDS011;11516;51.612;7.510;2022-07-23T11:46:55;2.80;;;2.20;;
22697;SDS011;11516;51.612;7.510;2022-07-23T11:49:25;2.97;;;1.88;;
22697;SDS011;11516;51.612;7.510;2022-07-23T11:54:46;5.18;;;3.78;;
22697;SDS011;11516;51.612;7.510;2022-07-23T11:57:19;2.50;;;2.30;;
22697;SDS011;11516;51.612;7.510;2022-07-23T11:59:50;3.00;;;2.70;;
22697;SDS011;11516;51.612;7.510;2022-07-23T12:02:19;2.60;;;1.98;;
22697;SDS011;11516;51.612;7.510;2022-07-23T12:04:46;3.20;;;2.03;;
22697;SDS011;11516;51.612;7.510;2022-07-23T12:07:30;2.63;;;2.10;;
22697;SDS011;11516;51.612;7.510;2022-07-23T12:12:38;2.50;;;1.70;;
22697;SDS011;11516;51.612;7.510;2022-07-23T12:15:05;2.63;;;1.67;;
22697;SDS011;11516;51.612;7.510;2022-07-23T12:17:32;3.10;;;1.70;;
22697;SDS011;11516;51.612;7.510;2022-07-23T12:20:00;2.25;;;2.00;;
22697;SDS011;11516;51.612;7.510;2022-07-23T12:22:37;3.50;;;3.20;;
22697;SDS011;11516;51.612;7.510;2022-07-23T12:25:12;2.30;;;1.50;;
22697;SDS011;11516;51.612;7.510;2022-07-23T12:27:40;5.70;;;2.20;;
22697;SDS011;11516;51.612;7.510;2022-07-23T12:30:16;2.72;;;1.80;;
22697;SDS011;11516;51.612;7.510;2022-07-23T12:32:50;3.35;;;1.80;;
22697;SDS011;11516;51.612;7.510;2022-07-23T12:35:20;2.60;;;2.40;;
22697;SDS011;11516;51.612;7.510;2022-07-23T12:37:48;4.60;;;2.40;;
22697;SDS011;11516;51.612;7.510;2022-07-23T12:40:21;5.80;;;3.47;;
22697;SDS011;11516;51.612;7.510;2022-07-23T12:42:49;2.75;;;2.10;;
22697;SDS011;11516;51.612;7.510;2022-07-23T12:45:17;1.98;;;1.77;;
22697;SDS011;11516;51.612;7.510;2022-07-23T12:47:57;2.23;;;2.03;;
22697;SDS011;11516;51.612;7.510;2022-07-23T12:50:42;2.08;;;1.80;;
22697;SDS011;11516;51.612;7.510;2022-07-23T12:53:17;2.25;;;1.90;;
22697;SDS011;11516;51.612;7.510;2022-07-23T12:55:48;2.10;;;1.90;;
22697;SDS011;11516;51.612;7.510;2022-07-23T13:03:28;2.72;;;1.70;;
22697;SDS011;11516;51.612;7.510;2022-07-23T13:06:00;2.20;;;1.90;;
22697;SDS011;11516;51.612;7.510;2022-07-23T13:08:29;3.30;;;2.50;;
22697;SDS011;11516;51.612;7.510;2022-07-23T13:10:55;3.50;;;2.08;;
22697;SDS011;11516;51.612;7.510;2022-07-23T13:13:23;3.30;;;1.97;;
22697;SDS011;11516;51.612;7.510;2022-07-23T13:15:50;2.38;;;1.77;;
22697;SDS011;11516;51.612;7.510;2022-07-23T13:18:17;2.60;;;1.85;;
22697;SDS011;11516;51.612;7.510;2022-07-23T13:20:44;7.10;;;2.70;;
22697;SDS011;11516;51.612;7.510;2022-07-23T13:23:11;4.22;;;1.95;;
22697;SDS011;11516;51.612;7.510;2022-07-23T13:25:36;3.17;;;1.83;;
22697;SDS011;11516;51.612;7.510;2022-07-23T13:28:02;3.65;;;1.80;;
22697;SDS011;11516;51.612;7.510;2022-07-23T13:30:28;2.38;;;1.90;;
22697;SDS011;11516;51.612;7.510;2022-07-23T13:32:54;2.80;;;1.63;;
22697;SDS011;11516;51.612;7.510;2022-07-23T13:35:19;2.13;;;1.93;;
22697;SDS011;11516;51.612;7.510;2022-07-23T13:37:45;4.03;;;2.30;;
22697;SDS011;11516;51.612;7.510;2022-07-23T13:40:11;2.10;;;1.77;;
22697;SDS011;11516;51.612;7.510;2022-07-23T13:42:37;2.80;;;1.90;;
22697;SDS011;11516;51.612;7.510;2022-07-23T13:45:06;2.50;;;1.88;;
22697;SDS011;11516;51.612;7.510;2022-07-23T13:47:31;3.47;;;1.80;;
22697;SDS011;11516;51.612;7.510;2022-07-23T13:49:57;2.63;;;1.92;;
22697;SDS011;11516;51.612;7.510;2022-07-23T13:52:23;2.67;;;1.90;;
22697;SDS011;11516;51.612;7.510;2022-07-23T13:54:49;3.55;;;1.80;;
22697;SDS011;11516;51.612;7.510;2022-07-23T13:57:15;1.98;;;1.88;;
22697;SDS011;11516;51.612;7.510;2022-07-23T13:59:41;3.30;;;1.88;;
22697;SDS011;11516;51.612;7.510;2022-07-23T14:02:07;4.88;;;4.10;;
22697;SDS011;11516;51.612;7.510;2022-07-23T14:04:33;8.23;;;6.72;;
22697;SDS011;11516;51.612;7.510;2022-07-23T14:06:58;5.13;;;2.60;;
22697;SDS011;11516;51.612;7.510;2022-07-23T14:09:24;3.45;;;1.95;;
22697;SDS011;11516;51.612;7.510;2022-07-23T14:11:50;2.65;;;1.90;;
22697;SDS011;11516;51.612;7.510;2022-07-23T14:14:17;3.13;;;2.00;;
22697;SDS011;11516;51.612;7.510;2022-07-23T14:16:42;2.83;;;1.97;;
22697;SDS011;11516;51.612;7.510;2022-07-23T14:19:08;2.30;;;2.10;;
22697;SDS011;11516;51.612;7.510;2022-07-23T14:21:35;4.07;;;2.00;;
22697;SDS011;11516;51.612;7.510;2022-07-23T14:24:00;5.27;;;2.33;;
22697;SDS011;11516;51.612;7.510;2022-07-23T14:26:26;2.90;;;2.10;;
22697;SDS011;11516;51.612;7.510;2022-07-23T14:28:52;2.40;;;2.10;;
22697;SDS011;11516;51.612;7.510;2022-07-23T14:31:17;3.07;;;1.87;;
22697;SDS011;11516;51.612;7.510;2022-07-23T14:33:43;3.50;;;2.10;;
22697;SDS011;11516;51.612;7.510;2022-07-23T14:36:08;2.60;;;2.15;;
22697;SDS011;11516;51.612;7.510;2022-07-23T14:38:34;2.97;;;2.10;;
22697;SDS011;11516;51.612;7.510;2022-07-23T14:41:00;2.50;;;2.30;;
22697;SDS011;11516;51.612;7.510;2022-07-23T14:43:25;2.20;;;1.93;;
22697;SDS011;11516;51.612;7.510;2022-07-23T14:45:51;2.65;;;2.10;;
22697;SDS011;11516;51.612;7.510;2022-07-23T14:48:16;3.70;;;1.90;;
22697;SDS011;11516;51.612;7.510;2022-07-23T14:50:42;5.27;;;3.70;;
22697;SDS011;11516;51.612;7.510;2022-07-23T14:53:07;4.10;;;3.20;;
22697;SDS011;11516;51.612;7.510;2022-07-23T14:55:33;3.60;;;2.30;;
22697;SDS011;11516;51.612;7.510;2022-07-23T14:57:59;2.87;;;2.20;;
22697;SDS011;11516;51.612;7.510;2022-07-23T15:00:24;2.47;;;2.10;;
22697;SDS011;11516;51.612;7.510;2022-07-23T15:02:51;4.10;;;2.08;;
22697;SDS011;11516;51.612;7.510;2022-07-23T15:05:16;4.03;;;3.03;;
22697;SDS011;11516;51.612;7.510;2022-07-23T15:07:42;2.13;;;1.93;;
22697;SDS011;11516;51.612;7.510;2022-07-23T15:10:08;3.70;;;2.83;;
22697;SDS011;11516;51.612;7.510;2022-07-23T15:12:33;3.13;;;2.40;;
22697;SDS011;11516;51.612;7.510;2022-07-23T15:14:59;4.80;;;2.80;;
22697;SDS011;11516;51.612;7.510;2022-07-23T15:17:24;3.00;;;2.30;;
22697;SDS011;11516;51.612;7.510;2022-07-23T15:19:50;3.40;;;2.30;;
22697;SDS011;11516;51.612;7.510;2022-07-23T15:22:16;2.23;;;1.90;;
22697;SDS011;11516;51.612;7.510;2022-07-23T15:24:41;2.53;;;1.87;;
22697;SDS011;11516;51.612;7.510;2022-07-23T15:27:07;2.00;;;1.80;;